Time;durP1;ratioP1;P1;durP2;ratioP2;P2;SDS_P1;SDS_P2;PMS_P1;PMS_P2;Temp;Humidity;BMP_temperature;BMP_pressure;BME280_temperature;BME280_humidity;BME280_pressure;Samples;Min_cycle;Max_cycle;Signal;HPM_P1;HPM_P2
2022/06/30 13:01:33;;;;;;;11.07;6.07;;;;;;;;;;5162706;27;20910;-59
2022/06/30 13:04:03;;;;;;;9.43;5.47;;;;;;;;;;5157280;27;20669;-59
2022/06/30 13:06:36;;;;;;;8.40;5.95;;;;;;;;;;5152832;27;20240;-58
2022/06/30 13:09:06;;;;;;;12.80;5.97;;;;;;;;;;5152876;27;20220;-58
2022/06/30 13:11:36;;;;;;;6.97;5.50;;;;;;;;;;5152772;27;20220;-59
2022/06/30 13:14:04;;;;;;;7.63;5.72;;;;;;;;;;5153170;27;20237;-58
2022/06/30 13:16:32;;;;;;;8.18;5.55;;;;;;;;;;5150013;27;20281;-60
2022/06/30 13:19:00;;;;;;;9.30;5.25;;;;;;;;;;5152696;27;20285;-59
2022/06/30 13:21:28;;;;;;;6.95;5.65;;;;;;;;;;5152939;27;20236;-58
2022/06/30 13:23:55;;;;;;;7.43;5.50;;;;;;;;;;5152541;27;20225;-58
2022/06/30 13:26:23;;;;;;;11.35;5.78;;;;;;;;;;5152829;27;20216;-57
2022/06/30 13:28:50;;;;;;;9.25;5.53;;;;;;;;;;5152341;27;20285;-59
2022/06/30 13:31:18;;;;;;;7.07;5.50;;;;;;;;;;5151398;27;20267;-57
2022/06/30 13:33:46;;;;;;;9.38;6.00;;;;;;;;;;5152472;27;20244;-57
2022/06/30 13:36:14;;;;;;;9.13;5.70;;;;;;;;;;5152711;27;20291;-58
2022/06/30 13:38:41;;;;;;;7.10;4.95;;;;;;;;;;5152090;27;20221;-59
2022/06/30 13:41:08;;;;;;;12.43;5.57;;;;;;;;;;5152107;27;20273;-60
2022/06/30 13:43:35;;;;;;;7.57;5.55;;;;;;;;;;5150510;27;21052;-59
2022/06/30 13:46:02;;;;;;;9.50;5.75;;;;;;;;;;5151033;27;20265;-59
2022/06/30 13:48:29;;;;;;;12.25;5.55;;;;;;;;;;5151827;27;20244;-59
2022/06/30 13:50:57;;;;;;;8.05;5.68;;;;;;;;;;5146031;27;20670;-59
2022/06/30 13:53:24;;;;;;;8.13;6.18;;;;;;;;;;5130384;27;20662;-59
2022/06/30 13:55:51;;;;;;;9.93;5.72;;;;;;;;;;5131222;27;20290;-59
2022/06/30 13:58:18;;;;;;;12.25;5.80;;;;;;;;;;5130990;27;20224;-59
2022/06/30 14:00:46;;;;;;;7.95;5.18;;;;;;;;;;5129676;28;20240;-59
2022/06/30 14:03:14;;;;;;;12.68;6.28;;;;;;;;;;5130805;27;20568;-59
2022/06/30 14:05:42;;;;;;;9.27;5.72;;;;;;;;;;5133843;27;20282;-57
2022/06/30 14:08:10;;;;;;;8.13;6.13;;;;;;;;;;5131984;27;20221;-62
2022/06/30 14:10:39;;;;;;;8.95;5.65;;;;;;;;;;5129455;28;20286;-62
2022/06/30 14:13:06;;;;;;;7.72;5.82;;;;;;;;;;5150179;27;20295;-60
2022/06/30 14:15:33;;;;;;;7.55;5.40;;;;;;;;;;5130302;27;20217;-54
2022/06/30 14:18:01;;;;;;;8.60;5.63;;;;;;;;;;5132721;27;20221;-59
2022/06/30 14:20:29;;;;;;;8.32;5.35;;;;;;;;;;5135673;27;20555;-60
2022/06/30 14:22:56;;;;;;;7.43;5.43;;;;;;;;;;5136195;27;20706;-59
2022/06/30 14:25:23;;;;;;;9.95;5.50;;;;;;;;;;5130650;27;20645;-59
2022/06/30 14:27:50;;;;;;;7.35;5.53;;;;;;;;;;5136324;27;20228;-62
2022/06/30 14:30:17;;;;;;;9.13;5.05;;;;;;;;;;5135164;27;20242;-60
2022/06/30 14:32:44;;;;;;;7.68;5.20;;;;;;;;;;5135973;27;20592;-60
2022/06/30 14:35:15;;;;;;;10.02;5.40;;;;;;;;;;5134263;27;20290;-58
2022/06/30 14:37:42;;;;;;;9.30;5.45;;;;;;;;;;5132937;27;20217;-62
2022/06/30 14:40:12;;;;;;;13.57;5.13;;;;;;;;;;5133627;27;20232;-70
2022/06/30 14:42:43;;;;;;;15.45;5.43;;;;;;;;;;5133496;27;20366;-65
2022/06/30 14:45:11;;;;;;;9.85;5.18;;;;;;;;;;5134151;27;20721;-55
2022/06/30 14:47:38;;;;;;;13.48;5.47;;;;;;;;;;5136608;27;20217;-64
2022/06/30 14:50:06;;;;;;;12.82;5.70;;;;;;;;;;5136493;27;20236;-63
2022/06/30 14:52:33;;;;;;;23.38;8.05;;;;;;;;;;5136646;27;20221;-62
2022/06/30 14:55:00;;;;;;;15.10;6.80;;;;;;;;;;5136443;27;20286;-63
2022/06/30 14:57:27;;;;;;;31.70;11.98;;;;;;;;;;5136079;27;20221;-63
2022/06/30 14:59:54;;;;;;;9.52;6.15;;;;;;;;;;5135388;27;20233;-59
2022/06/30 15:02:21;;;;;;;18.88;9.43;;;;;;;;;;5136003;27;20233;-59
2022/06/30 15:04:48;;;;;;;9.90;5.00;;;;;;;;;;5134865;27;20225;-59
2022/06/30 15:07:15;;;;;;;12.23;5.78;;;;;;;;;;5135234;27;20244;-63
2022/06/30 15:09:43;;;;;;;14.43;6.10;;;;;;;;;;5134112;27;20664;-59
2022/06/30 15:12:12;;;;;;;7.43;4.88;;;;;;;;;;5134093;27;20286;-65
2022/06/30 15:14:41;;;;;;;9.40;5.30;;;;;;;;;;5131334;27;20711;-63
2022/06/30 15:17:08;;;;;;;7.68;4.93;;;;;;;;;;5126349;27;20228;-65
2022/06/30 15:19:36;;;;;;;9.75;5.20;;;;;;;;;;5135679;27;20241;-62
2022/06/30 15:24:49;;;;;;;7.63;5.28;;;;;;;;;;5134746;27;20673;-63
2022/06/30 15:27:18;;;;;;;9.60;4.78;;;;;;;;;;5135703;27;20273;-65
2022/06/30 15:29:49;;;;;;;9.60;4.75;;;;;;;;;;5135087;27;20282;-64
2022/06/30 15:32:17;;;;;;;14.05;4.68;;;;;;;;;;5130883;27;20232;-65
2022/06/30 15:34:49;;;;;;;7.03;4.60;;;;;;;;;;5135706;27;20252;-66
2022/06/30 15:37:36;;;;;;;7.45;4.70;;;;;;;;;;5135257;27;20648;-65
2022/06/30 15:40:10;;;;;;;8.85;4.57;;;;;;;;;;5135116;27;20550;-65
2022/06/30 15:42:38;;;;;;;8.38;5.57;;;;;;;;;;5132946;27;20220;-64
2022/06/30 15:45:06;;;;;;;9.27;5.35;;;;;;;;;;5134608;27;20217;-63
2022/06/30 15:47:33;;;;;;;9.15;5.15;;;;;;;;;;5131787;27;20214;-62
2022/06/30 15:50:00;;;;;;;10.98;5.43;;;;;;;;;;5134576;27;20574;-63
2022/06/30 15:52:28;;;;;;;9.32;5.25;;;;;;;;;;5136561;27;20197;-63
2022/06/30 15:54:56;;;;;;;10.52;5.50;;;;;;;;;;5135783;27;20265;-64
2022/06/30 15:57:23;;;;;;;15.05;5.30;;;;;;;;;;5135868;27;20259;-64
2022/06/30 15:59:50;;;;;;;7.47;5.53;;;;;;;;;;5135073;27;20229;-66
2022/06/30 16:02:18;;;;;;;12.05;5.43;;;;;;;;;;5135021;27;20198;-66
2022/06/30 16:04:46;;;;;;;9.70;5.55;;;;;;;;;;5136253;27;20237;-66
2022/06/30 16:07:13;;;;;;;11.55;6.28;;;;;;;;;;5136736;27;20587;-67
2022/06/30 16:09:40;;;;;;;13.52;5.47;;;;;;;;;;5136307;27;20583;-65
2022/06/30 16:12:08;;;;;;;6.82;5.35;;;;;;;;;;5136119;27;20258;-63
2022/06/30 16:14:35;;;;;;;9.80;5.50;;;;;;;;;;5135508;27;20210;-63
2022/06/30 16:17:02;;;;;;;12.48;5.47;;;;;;;;;;5136516;27;20200;-63
2022/06/30 16:19:29;;;;;;;11.55;5.22;;;;;;;;;;5135940;27;20197;-65
2022/06/30 16:21:57;;;;;;;6.18;5.57;;;;;;;;;;5136001;27;20540;-67
2022/06/30 16:24:24;;;;;;;9.38;5.65;;;;;;;;;;5135965;27;20629;-68
2022/06/30 16:26:51;;;;;;;10.52;5.55;;;;;;;;;;5136424;27;20610;-66
2022/06/30 16:29:18;;;;;;;13.65;5.78;;;;;;;;;;5136082;27;20197;-68
2022/06/30 16:31:45;;;;;;;7.85;5.53;;;;;;;;;;5135101;27;20227;-68
2022/06/30 16:34:12;;;;;;;11.93;4.93;;;;;;;;;;5135923;27;20274;-67
2022/06/30 16:36:41;;;;;;;9.52;5.32;;;;;;;;;;5136193;27;20202;-68
2022/06/30 16:39:08;;;;;;;6.63;5.15;;;;;;;;;;5135861;27;20626;-67
2022/06/30 16:41:36;;;;;;;10.70;5.43;;;;;;;;;;5135893;27;20232;-68
2022/06/30 16:44:03;;;;;;;14.60;5.70;;;;;;;;;;5135975;27;20258;-67
2022/06/30 16:46:30;;;;;;;8.48;5.80;;;;;;;;;;5135516;27;20198;-63
2022/06/30 16:48:58;;;;;;;7.20;5.60;;;;;;;;;;5135115;27;20204;-67
2022/06/30 16:51:25;;;;;;;7.05;6.03;;;;;;;;;;5134525;27;20228;-62
2022/06/30 16:53:52;;;;;;;6.75;6.03;;;;;;;;;;5128199;27;20197;-67
2022/06/30 16:56:19;;;;;;;8.90;5.47;;;;;;;;;;5135049;27;20241;-68
2022/06/30 16:58:46;;;;;;;13.90;6.55;;;;;;;;;;5134132;27;20620;-63
2022/06/30 17:01:13;;;;;;;10.05;5.75;;;;;;;;;;5135163;27;20307;-67
2022/06/30 17:03:40;;;;;;;10.50;6.38;;;;;;;;;;5134766;27;20746;-64
2022/06/30 17:06:08;;;;;;;9.65;6.50;;;;;;;;;;5138936;27;20228;-66
2022/06/30 17:08:35;;;;;;;6.85;5.93;;;;;;;;;;5153408;27;20319;-68
2022/06/30 17:11:14;;;;;;;8.82;6.13;;;;;;;;;;5134518;27;20229;-67
2022/06/30 17:13:44;;;;;;;8.95;6.28;;;;;;;;;;5134381;27;20292;-65
2022/06/30 17:16:11;;;;;;;10.15;6.95;;;;;;;;;;5134891;27;20221;-68
2022/06/30 17:18:38;;;;;;;10.60;6.70;;;;;;;;;;5134398;27;20262;-65
2022/06/30 17:21:06;;;;;;;7.18;6.47;;;;;;;;;;5133552;27;20611;-67
2022/06/30 17:23:34;;;;;;;8.52;6.57;;;;;;;;;;5132883;27;20274;-67
2022/06/30 17:26:02;;;;;;;10.45;6.90;;;;;;;;;;5134582;27;20217;-67
2022/06/30 17:28:33;;;;;;;11.90;7.10;;;;;;;;;;5134919;27;20322;-67
2022/06/30 17:31:01;;;;;;;8.77;7.47;;;;;;;;;;5134428;27;20225;-67
2022/06/30 17:33:29;;;;;;;12.35;6.65;;;;;;;;;;5132940;27;20217;-64
2022/06/30 17:35:56;;;;;;;15.10;7.32;;;;;;;;;;5131712;27;20221;-65
2022/06/30 17:38:24;;;;;;;8.48;7.13;;;;;;;;;;5131363;28;20221;-67
2022/06/30 17:40:54;;;;;;;11.88;7.00;;;;;;;;;;5131617;27;20233;-66
2022/06/30 17:43:24;;;;;;;9.45;7.00;;;;;;;;;;5132676;27;20213;-67
2022/06/30 17:45:52;;;;;;;13.52;7.45;;;;;;;;;;5132891;27;20727;-64
2022/06/30 17:48:21;;;;;;;11.18;6.97;;;;;;;;;;5136843;27;20293;-63
2022/06/30 17:50:50;;;;;;;10.77;7.45;;;;;;;;;;5135481;27;20316;-59
2022/06/30 17:53:18;;;;;;;8.18;7.38;;;;;;;;;;5134760;27;20239;-68
2022/06/30 17:55:45;;;;;;;11.23;6.95;;;;;;;;;;5134921;27;20277;-62
2022/06/30 17:58:15;;;;;;;10.65;7.65;;;;;;;;;;5133692;27;20693;-67
2022/06/30 18:00:44;;;;;;;8.38;7.40;;;;;;;;;;5133612;27;20233;-68
2022/06/30 18:03:13;;;;;;;8.00;7.20;;;;;;;;;;5134373;27;20213;-70
2022/06/30 18:05:42;;;;;;;10.23;7.85;;;;;;;;;;5133958;27;20214;-69
2022/06/30 18:13:35;;;;;;;11.52;7.82;;;;;;;;;;5135990;27;20269;-65
2022/06/30 18:16:03;;;;;;;10.88;7.93;;;;;;;;;;5132679;27;20213;-61
2022/06/30 18:18:31;;;;;;;20.17;8.07;;;;;;;;;;5134351;27;20732;-58
2022/06/30 18:20:59;;;;;;;15.68;8.38;;;;;;;;;;5130057;27;20229;-57
2022/06/30 18:23:29;;;;;;;10.60;8.15;;;;;;;;;;5133952;27;20232;-60
2022/06/30 18:25:57;;;;;;;16.45;8.20;;;;;;;;;;5135138;27;20657;-61
2022/06/30 18:28:24;;;;;;;8.88;8.07;;;;;;;;;;5135171;27;20586;-62
2022/06/30 18:30:51;;;;;;;10.35;7.80;;;;;;;;;;5135671;27;20225;-60
2022/06/30 18:33:18;;;;;;;10.52;7.63;;;;;;;;;;5135977;27;20271;-60
2022/06/30 18:35:45;;;;;;;10.52;8.45;;;;;;;;;;5135852;27;20221;-60
2022/06/30 18:38:12;;;;;;;9.10;7.72;;;;;;;;;;5136225;27;20231;-61
2022/06/30 18:40:39;;;;;;;9.50;7.95;;;;;;;;;;5138122;27;20209;-65
2022/06/30 18:43:06;;;;;;;10.77;8.20;;;;;;;;;;5133951;27;20703;-62
2022/06/30 18:45:33;;;;;;;10.98;8.52;;;;;;;;;;5134013;27;20237;-63
2022/06/30 18:48:01;;;;;;;9.23;8.00;;;;;;;;;;5132842;27;20231;-47
2022/06/30 18:50:28;;;;;;;9.75;8.43;;;;;;;;;;5132533;27;20301;-61
2022/06/30 18:52:55;;;;;;;8.88;7.95;;;;;;;;;;5133556;27;20290;-56
2022/06/30 18:55:26;;;;;;;9.60;8.50;;;;;;;;;;5135157;27;20304;-59
2022/06/30 18:57:53;;;;;;;11.18;8.20;;;;;;;;;;5133693;27;20225;-62
2022/06/30 19:00:21;;;;;;;11.75;8.15;;;;;;;;;;5137131;27;20653;-63
2022/06/30 19:02:48;;;;;;;13.23;8.45;;;;;;;;;;5135963;27;20241;-62
2022/06/30 19:05:15;;;;;;;14.10;8.07;;;;;;;;;;5136823;27;20225;-64
2022/06/30 19:07:44;;;;;;;13.65;8.20;;;;;;;;;;5135776;27;20217;-63
2022/06/30 19:10:11;;;;;;;13.27;8.55;;;;;;;;;;5136520;27;20248;-64
2022/06/30 19:12:38;;;;;;;10.07;8.23;;;;;;;;;;5136189;27;20237;-62
2022/06/30 19:15:06;;;;;;;9.85;7.90;;;;;;;;;;5136324;27;20274;-64
2022/06/30 19:17:33;;;;;;;11.32;8.60;;;;;;;;;;5135756;27;20719;-65
2022/06/30 19:20:02;;;;;;;13.82;8.90;;;;;;;;;;5136201;27;20641;-64
2022/06/30 19:22:29;;;;;;;13.23;9.32;;;;;;;;;;5135639;27;20237;-63
2022/06/30 19:25:16;;;;;;;14.18;8.32;;;;;;;;;;5135633;27;20545;-62
2022/06/30 19:27:45;;;;;;;13.73;8.57;;;;;;;;;;5135417;27;20225;-63
2022/06/30 19:30:12;;;;;;;13.35;8.82;;;;;;;;;;5135910;27;20225;-63
2022/06/30 19:32:39;;;;;;;12.88;8.82;;;;;;;;;;5135168;27;20762;-56
2022/06/30 19:35:08;;;;;;;13.20;8.27;;;;;;;;;;5135347;27;20666;-61
2022/06/30 19:37:36;;;;;;;12.63;9.05;;;;;;;;;;5134689;27;20235;-55
2022/06/30 19:40:04;;;;;;;13.95;8.63;;;;;;;;;;5147632;27;20224;-61
2022/06/30 19:42:33;;;;;;;13.45;8.98;;;;;;;;;;5155958;27;20228;-60
2022/06/30 19:45:05;;;;;;;15.05;9.48;;;;;;;;;;5155776;27;20223;-60
2022/06/30 19:47:32;;;;;;;15.90;8.90;;;;;;;;;;5156324;27;20281;-61
2022/06/30 19:50:00;;;;;;;17.80;9.60;;;;;;;;;;5155535;27;20331;-61
2022/06/30 19:52:27;;;;;;;9.90;8.90;;;;;;;;;;5155764;27;20227;-61
2022/06/30 19:54:56;;;;;;;12.05;9.02;;;;;;;;;;5155437;27;20217;-61
2022/06/30 19:57:24;;;;;;;12.90;8.93;;;;;;;;;;5155854;27;20289;-62
2022/06/30 19:59:53;;;;;;;10.32;9.32;;;;;;;;;;5155321;27;20236;-60
2022/06/30 20:02:20;;;;;;;9.73;8.73;;;;;;;;;;5155774;27;20232;-61
2022/06/30 20:04:59;;;;;;;14.40;9.40;;;;;;;;;;5154360;27;20307;-61
2022/06/30 20:13:19;;;;;;;11.73;8.93;;;;;;;;;;5071203;28;20273;-61
2022/06/30 20:15:46;;;;;;;11.63;8.30;;;;;;;;;;5070086;28;20227;-61
2022/06/30 20:18:13;;;;;;;9.77;8.77;;;;;;;;;;5101308;27;20221;-60
2022/06/30 20:20:40;;;;;;;11.35;8.88;;;;;;;;;;5133840;27;20286;-56
2022/06/30 20:23:08;;;;;;;9.50;8.50;;;;;;;;;;5134251;27;20240;-60
2022/06/30 20:25:35;;;;;;;12.40;8.10;;;;;;;;;;5134226;27;20548;-60
2022/06/30 20:28:03;;;;;;;14.00;8.10;;;;;;;;;;5134813;27;20225;-62
2022/06/30 20:30:30;;;;;;;9.13;8.23;;;;;;;;;;5134660;27;20310;-62
2022/06/30 20:32:57;;;;;;;10.25;8.30;;;;;;;;;;5134141;27;20221;-60
2022/06/30 20:35:24;;;;;;;10.48;8.20;;;;;;;;;;5134455;27;20282;-63
2022/06/30 20:37:51;;;;;;;10.27;8.35;;;;;;;;;;5133909;27;20282;-62
2022/06/30 20:40:18;;;;;;;8.05;7.25;;;;;;;;;;5134097;27;20837;-60
2022/06/30 20:42:45;;;;;;;9.80;7.68;;;;;;;;;;5134544;27;20302;-59
2022/06/30 20:45:12;;;;;;;10.23;7.68;;;;;;;;;;5133867;27;20217;-53
2022/06/30 20:53:11;;;;;;;10.60;8.50;;;;;;;;;;5133726;27;20683;-50
2022/06/30 20:55:39;;;;;;;11.20;7.80;;;;;;;;;;5133641;27;20290;-52
2022/06/30 20:58:05;;;;;;;10.05;8.05;;;;;;;;;;5134386;28;20225;-56
2022/06/30 21:00:33;;;;;;;9.63;7.93;;;;;;;;;;5134071;27;20252;-57
2022/06/30 21:03:00;;;;;;;8.90;7.97;;;;;;;;;;5133246;27;20233;-55
2022/06/30 21:05:27;;;;;;;8.98;7.65;;;;;;;;;;5133466;27;20232;-53
2022/06/30 21:07:54;;;;;;;8.60;7.65;;;;;;;;;;5132083;28;20314;-57
2022/06/30 21:10:21;;;;;;;9.80;7.88;;;;;;;;;;5149112;27;20243;-51
2022/06/30 21:12:48;;;;;;;8.85;7.85;;;;;;;;;;5154349;27;20236;-55
2022/06/30 21:15:15;;;;;;;9.57;7.78;;;;;;;;;;5154789;27;20228;-55
2022/06/30 21:17:42;;;;;;;11.50;8.35;;;;;;;;;;5154171;27;20683;-56
2022/06/30 21:20:10;;;;;;;9.90;8.20;;;;;;;;;;5154299;27;20623;-48
2022/06/30 21:22:39;;;;;;;11.32;7.75;;;;;;;;;;5157386;27;20232;-53
2022/06/30 21:25:07;;;;;;;10.07;7.90;;;;;;;;;;5159317;27;20211;-49
2022/06/30 21:27:34;;;;;;;9.00;8.05;;;;;;;;;;5159538;27;20201;-51
2022/06/30 21:30:04;;;;;;;10.63;8.25;;;;;;;;;;5159931;27;20196;-53
2022/06/30 21:32:31;;;;;;;10.88;8.23;;;;;;;;;;5158872;27;20272;-51
2022/06/30 21:35:00;;;;;;;10.35;7.97;;;;;;;;;;5159785;27;20208;-53
2022/06/30 21:37:27;;;;;;;12.75;8.32;;;;;;;;;;5159345;27;20196;-51
2022/06/30 21:39:54;;;;;;;9.48;8.38;;;;;;;;;;5159370;27;20529;-49
2022/06/30 21:42:21;;;;;;;11.57;7.70;;;;;;;;;;5159512;27;20224;-52
2022/06/30 21:44:48;;;;;;;9.52;8.55;;;;;;;;;;5159056;27;20516;-55
2022/06/30 21:47:16;;;;;;;10.55;8.45;;;;;;;;;;5159239;27;20212;-56
2022/06/30 21:49:46;;;;;;;10.15;8.02;;;;;;;;;;5159480;27;20606;-56
2022/06/30 21:52:14;;;;;;;12.20;8.55;;;;;;;;;;5159058;27;20207;-53
2022/06/30 21:54:41;;;;;;;11.57;8.70;;;;;;;;;;5158783;27;20201;-55
2022/06/30 21:57:08;;;;;;;9.82;8.43;;;;;;;;;;5159107;27;20272;-57
2022/06/30 21:59:35;;;;;;;10.98;8.50;;;;;;;;;;5158926;27;20315;-54
2022/06/30 22:02:03;;;;;;;11.75;8.00;;;;;;;;;;5157662;27;20220;-56
2022/06/30 22:04:33;;;;;;;10.63;8.82;;;;;;;;;;5159250;27;20215;-55
2022/06/30 22:07:00;;;;;;;9.50;8.48;;;;;;;;;;5159342;27;20578;-53
2022/06/30 22:09:27;;;;;;;9.70;8.00;;;;;;;;;;5140916;27;20205;-50
2022/06/30 22:11:54;;;;;;;10.77;8.32;;;;;;;;;;5137637;27;20278;-50
2022/06/30 22:14:21;;;;;;;10.82;8.10;;;;;;;;;;5136950;27;20554;-53
2022/06/30 22:16:48;;;;;;;9.60;7.85;;;;;;;;;;5137876;27;20197;-56
2022/06/30 22:19:15;;;;;;;9.15;8.25;;;;;;;;;;5137577;27;20194;-52
2022/06/30 22:21:42;;;;;;;10.27;9.00;;;;;;;;;;5136635;27;20687;-55
2022/06/30 22:24:10;;;;;;;8.93;8.00;;;;;;;;;;5135703;27;20202;-51
2022/06/30 22:26:37;;;;;;;10.00;8.93;;;;;;;;;;5137185;27;20264;-53
2022/06/30 22:29:04;;;;;;;12.38;8.40;;;;;;;;;;5136145;27;20217;-52
2022/06/30 22:31:31;;;;;;;13.10;8.38;;;;;;;;;;5137560;27;20201;-49
2022/06/30 22:34:00;;;;;;;16.73;9.05;;;;;;;;;;5137263;27;20266;-48
2022/06/30 22:36:27;;;;;;;9.80;8.90;;;;;;;;;;5136236;27;20846;-49
2022/06/30 22:38:54;;;;;;;11.45;8.75;;;;;;;;;;5137734;27;20205;-48
2022/06/30 22:41:21;;;;;;;10.20;8.95;;;;;;;;;;5137521;27;20200;-54
2022/06/30 22:43:48;;;;;;;10.70;9.57;;;;;;;;;;5137333;27;20232;-49
2022/06/30 22:46:15;;;;;;;13.30;8.52;;;;;;;;;;5137021;27;20205;-50
2022/06/30 22:48:42;;;;;;;12.60;9.63;;;;;;;;;;5137045;27;20205;-49
2022/06/30 22:51:09;;;;;;;9.50;8.52;;;;;;;;;;5137317;27;20205;-53
2022/06/30 22:53:36;;;;;;;10.65;9.23;;;;;;;;;;5137215;27;20210;-50
2022/06/30 22:56:03;;;;;;;12.50;9.73;;;;;;;;;;5137407;27;20197;-49
2022/06/30 22:58:31;;;;;;;11.55;9.57;;;;;;;;;;5137164;27;20201;-48
2022/06/30 23:00:59;;;;;;;12.68;9.88;;;;;;;;;;5136812;27;20567;-52
2022/06/30 23:03:25;;;;;;;11.25;8.95;;;;;;;;;;5136845;27;20268;-51
2022/06/30 23:05:52;;;;;;;15.57;9.52;;;;;;;;;;5137188;27;20232;-54
2022/06/30 23:08:20;;;;;;;10.02;8.93;;;;;;;;;;5136908;27;20205;-50
2022/06/30 23:10:47;;;;;;;10.38;9.27;;;;;;;;;;5137351;27;20208;-53
2022/06/30 23:13:14;;;;;;;10.68;9.68;;;;;;;;;;5136648;27;20211;-49
2022/06/30 23:15:41;;;;;;;11.23;9.40;;;;;;;;;;5133849;27;20630;-53
2022/06/30 23:18:08;;;;;;;11.18;9.27;;;;;;;;;;5115549;28;20645;-50
2022/06/30 23:20:35;;;;;;;10.52;9.43;;;;;;;;;;5114929;28;20217;-51
2022/06/30 23:23:02;;;;;;;13.55;9.93;;;;;;;;;;5115419;28;20225;-48
2022/06/30 23:25:29;;;;;;;11.00;9.45;;;;;;;;;;5115873;28;20539;-49
2022/06/30 23:27:56;;;;;;;12.20;10.02;;;;;;;;;;5115225;28;20198;-49
2022/06/30 23:30:23;;;;;;;10.65;9.55;;;;;;;;;;5115837;28;20209;-55
2022/06/30 23:32:50;;;;;;;11.32;9.98;;;;;;;;;;5116039;28;20235;-49
2022/06/30 23:35:17;;;;;;;14.65;9.52;;;;;;;;;;5116012;28;20213;-48
2022/06/30 23:37:44;;;;;;;17.92;10.00;;;;;;;;;;5115900;28;20209;-50
2022/06/30 23:40:11;;;;;;;14.38;10.77;;;;;;;;;;5115627;28;20631;-52
2022/06/30 23:42:38;;;;;;;11.75;9.88;;;;;;;;;;5115666;28;20309;-59
2022/06/30 23:45:06;;;;;;;12.45;9.88;;;;;;;;;;5114844;28;20201;-59
2022/06/30 23:47:33;;;;;;;12.20;9.80;;;;;;;;;;5115848;28;20198;-59
2022/06/30 23:50:00;;;;;;;15.77;10.27;;;;;;;;;;5115980;28;20197;-57
2022/06/30 23:52:27;;;;;;;12.13;9.85;;;;;;;;;;5115484;28;20198;-57
2022/06/30 23:54:54;;;;;;;13.65;9.75;;;;;;;;;;5115293;28;20205;-58
2022/06/30 23:57:21;;;;;;;13.32;10.18;;;;;;;;;;5115596;28;20218;-58
2022/06/30 23:59:48;;;;;;;14.15;10.90;;;;;;;;;;5115173;28;20798;-57
